createdAt,value
2023-04-25T00:00:02.039Z,70.00
2023-04-25T00:02:40.469Z,70.10
2023-04-25T00:05:09.313Z,69.84
2023-04-25T00:07:37.280Z,69.63
2023-04-25T00:10:05.993Z,69.96
2023-04-25T00:12:35.268Z,69.69
2023-04-25T00:15:03.219Z,70.12
2023-04-25T00:17:32.571Z,69.96
2023-04-25T00:20:01.007Z,69.49
2023-04-25T00:22:28.829Z,70.25
2023-04-25T00:24:58.274Z,70.43
2023-04-25T00:27:26.276Z,70.40
2023-04-25T00:29:55.513Z,69.88
2023-04-25T00:32:23.449Z,70.64
2023-04-25T00:34:51.371Z,71.44
2023-04-25T00:37:19.353Z,70.96
2023-04-25T00:39:47.231Z,71.25
2023-04-25T00:42:15.890Z,71.56
2023-04-25T00:44:45.488Z,71.63
2023-04-25T00:47:15.351Z,71.32
2023-04-25T00:49:43.726Z,70.54
2023-04-25T00:52:11.943Z,70.64
2023-04-25T00:54:40.259Z,70.22
2023-04-25T00:57:08.275Z,70.00
2023-04-25T00:59:38.234Z,69.67
2023-04-25T01:02:06.376Z,69.79
2023-04-25T01:04:35.708Z,69.77
2023-04-25T01:07:04.358Z,69.51
2023-04-25T01:09:32.911Z,70.35
2023-04-25T01:12:01.129Z,71.15
2023-04-25T01:14:29.458Z,71.66
2023-04-25T01:16:58.138Z,72.25
2023-04-25T01:19:26.405Z,73.23
2023-04-25T01:21:55.950Z,73.67
2023-04-25T01:24:24.258Z,74.27
2023-04-25T01:26:52.839Z,74.53
2023-04-25T01:29:26.140Z,74.75
2023-04-25T01:31:55.144Z,74.90
2023-04-25T01:34:23.263Z,74.90
2023-04-25T01:36:51.853Z,74.70
2023-04-25T01:39:21.608Z,75.14
2023-04-25T01:41:50.460Z,74.73
2023-04-25T01:44:18.734Z,74.32
2023-04-25T01:46:46.787Z,74.36
2023-04-25T01:49:14.866Z,74.01
2023-04-25T01:51:45.359Z,74.25
2023-04-25T01:54:15.214Z,73.18
2023-04-25T01:56:44.661Z,73.57
2023-04-25T01:59:13.624Z,72.97
2023-04-25T02:02:07.794Z,73.22
2023-04-25T02:04:37.175Z,73.18
2023-04-25T02:07:05.898Z,72.30
2023-04-25T02:09:52.827Z,72.87
2023-04-25T02:12:23.426Z,72.99
2023-04-25T02:14:51.274Z,72.36
2023-04-25T02:17:28.122Z,73.36
2023-04-25T02:19:56.259Z,73.23
2023-04-25T02:22:25.384Z,73.41
2023-04-25T02:24:53.319Z,73.18
2023-04-25T02:27:23.808Z,73.36
2023-04-25T02:29:51.782Z,72.68
2023-04-25T02:32:19.676Z,72.90
2023-04-25T02:34:49.108Z,71.83
2023-04-25T02:37:17.073Z,71.74
2023-04-25T02:39:47.130Z,71.85
2023-04-25T02:42:15.083Z,72.19
2023-04-25T02:44:44.289Z,72.91
2023-04-25T02:47:12.165Z,73.72
2023-04-25T02:49:40.580Z,73.60
2023-04-25T02:52:08.699Z,73.07
2023-04-25T02:54:36.844Z,72.94
2023-04-25T02:57:05.168Z,74.06
2023-04-25T02:59:37.570Z,73.41
2023-04-25T03:02:06.953Z,74.09
2023-04-25T03:04:35.409Z,74.68
2023-04-25T03:07:03.477Z,75.34
2023-04-25T03:09:31.428Z,76.25
2023-04-25T03:11:59.307Z,76.65
2023-04-25T03:14:27.209Z,75.88
2023-04-25T03:16:55.907Z,76.41
2023-04-25T03:19:25.370Z,75.95
2023-04-25T03:21:54.635Z,75.76
2023-04-25T03:24:22.877Z,76.13
2023-04-25T03:26:50.798Z,75.68
2023-04-25T03:29:18.725Z,76.40
2023-04-25T03:31:46.878Z,76.65
2023-04-25T03:34:15.719Z,76.23
2023-04-25T03:36:45.065Z,76.20
2023-04-25T03:39:13.569Z,76.91
2023-04-25T03:41:45.370Z,76.19
2023-04-25T03:44:15.851Z,76.37
2023-04-25T03:46:43.981Z,76.25
2023-04-25T03:49:11.951Z,75.61
2023-04-25T03:52:02.277Z,74.98
2023-04-25T03:54:35.587Z,75.24
2023-04-25T03:57:10.360Z,74.78
2023-04-25T03:59:40.630Z,74.82
2023-04-25T04:02:11.222Z,74.54
2023-04-25T04:04:40.829Z,74.26
2023-04-25T04:07:11.663Z,73.74
2023-04-25T04:09:42.845Z,73.68
2023-04-25T04:12:16.415Z,73.91
2023-04-25T04:14:44.549Z,74.18
2023-04-25T04:17:12.466Z,73.83
2023-04-25T04:19:40.651Z,74.82
2023-04-25T04:22:16.675Z,75.86
2023-04-25T04:24:47.402Z,76.28
2023-04-25T04:27:21.126Z,75.97
2023-04-25T04:30:04.204Z,75.68
2023-04-25T04:32:38.588Z,76.08
2023-04-25T04:35:08.542Z,76.28
2023-04-25T04:37:37.886Z,76.76
2023-04-25T04:40:10.446Z,75.95
2023-04-25T04:42:48.301Z,75.16
2023-04-25T04:45:28.704Z,74.68
2023-04-25T04:48:12.966Z,75.41
2023-04-25T04:51:17.429Z,75.13
2023-04-25T04:54:07.046Z,74.13
2023-04-25T04:56:55.224Z,73.87
2023-04-25T04:59:43.423Z,72.99
2023-04-25T05:02:37.218Z,72.77
2023-04-25T05:05:30.020Z,71.90
2023-04-25T05:08:17.005Z,72.39
2023-04-25T05:11:15.259Z,72.35
2023-04-25T05:13:58.245Z,72.10
2023-04-25T05:16:55.586Z,71.50
2023-04-25T05:19:42.724Z,71.28
2023-04-25T05:22:40.391Z,70.35
2023-04-25T05:25:15.238Z,70.36
2023-04-25T05:28:10.536Z,71.34
2023-04-25T05:30:48.225Z,72.09
2023-04-25T05:33:19.267Z,72.27
2023-04-25T05:35:48.979Z,72.54
2023-04-25T05:38:17.105Z,72.32
2023-04-25T05:41:14.366Z,72.50
2023-04-25T05:44:02.243Z,73.52
2023-04-25T05:46:47.821Z,71.40
2023-04-25T05:49:22.942Z,72.05
2023-04-25T05:52:23.642Z,71.49
2023-04-25T05:55:10.170Z,72.35
2023-04-25T05:57:42.239Z,72.52
2023-04-25T06:00:13.991Z,72.32
2023-04-25T06:02:42.500Z,72.35
2023-04-25T06:05:12.593Z,72.22
2023-04-25T06:07:40.839Z,72.25
2023-04-25T06:10:10.691Z,72.17
2023-04-25T06:12:39.709Z,71.93
2023-04-25T06:15:20.237Z,70.13
2023-04-25T06:17:57.722Z,70.99
2023-04-25T06:20:26.275Z,70.89
2023-04-25T06:22:56.717Z,70.78
2023-04-25T06:25:47.965Z,68.47
2023-04-25T06:28:16.247Z,68.35
2023-04-25T06:30:45.701Z,69.36
2023-04-25T06:33:19.620Z,69.07
2023-04-25T06:35:48.112Z,69.49
2023-04-25T06:38:19.276Z,69.88
2023-04-25T06:40:50.316Z,68.83
2023-04-25T06:43:20.350Z,68.76
2023-04-25T06:45:57.118Z,67.94
2023-04-25T06:48:28.785Z,66.95
2023-04-25T06:50:57.505Z,67.29
2023-04-25T06:53:25.938Z,67.60
2023-04-25T06:56:00.121Z,67.02
2023-04-25T06:58:36.547Z,67.52
2023-04-25T07:01:23.036Z,66.86
2023-04-25T07:03:52.768Z,66.04
2023-04-25T07:06:21.352Z,65.66
2023-04-25T07:08:50.193Z,65.44
2023-04-25T07:11:19.285Z,64.55
2023-04-25T07:13:47.212Z,64.75
2023-04-25T07:16:15.306Z,65.69
2023-04-25T07:18:43.252Z,65.92
2023-04-25T07:21:13.033Z,65.64
2023-04-25T07:23:43.107Z,64.96
2023-04-25T07:26:15.969Z,65.69
2023-04-25T07:29:03.911Z,64.64
2023-04-25T07:31:31.897Z,65.08
2023-04-25T07:34:01.883Z,65.36
2023-04-25T07:36:31.929Z,65.00
2023-04-25T07:38:59.920Z,64.98
2023-04-25T07:41:27.789Z,63.89
2023-04-25T07:43:56.145Z,64.76
2023-04-25T07:46:24.231Z,64.17
2023-04-25T07:48:54.196Z,64.72
2023-04-25T07:51:23.254Z,64.25
2023-04-25T07:53:57.445Z,64.76
2023-04-25T07:56:27.003Z,65.25
2023-04-25T07:58:54.944Z,63.87
2023-04-25T08:01:25.715Z,62.34
2023-04-25T08:04:00.517Z,61.87
2023-04-25T08:06:41.433Z,62.02
2023-04-25T08:09:16.707Z,61.26
2023-04-25T08:11:44.908Z,61.21
2023-04-25T08:14:16.200Z,61.36
2023-04-25T08:16:45.728Z,61.53
2023-04-25T08:19:14.457Z,61.91
2023-04-25T08:21:42.441Z,61.14
2023-04-25T08:24:16.404Z,61.65
2023-04-25T08:26:45.208Z,60.72
2023-04-25T08:29:17.667Z,61.18
2023-04-25T08:31:46.374Z,60.91
2023-04-25T08:34:15.585Z,61.20
2023-04-25T08:36:52.695Z,61.48
2023-04-25T08:39:53.356Z,60.98
2023-04-25T08:42:35.735Z,60.35
2023-04-25T08:45:07.259Z,59.98
2023-04-25T08:47:40.953Z,60.82
2023-04-25T08:50:09.329Z,61.20
2023-04-25T08:52:41.761Z,60.70
2023-04-25T08:55:13.890Z,59.81
2023-04-25T08:57:44.030Z,59.87
2023-04-25T09:00:14.158Z,60.00
2023-04-25T09:02:45.468Z,60.36
2023-04-25T09:05:15.690Z,60.49
2023-04-25T09:07:44.895Z,60.51
2023-04-25T09:10:14.127Z,59.36
2023-04-25T09:12:42.176Z,59.28
2023-04-25T09:15:13.073Z,58.99
2023-04-25T09:17:58.125Z,59.62
2023-04-25T09:20:31.839Z,59.94
2023-04-25T09:23:04.137Z,58.58
2023-04-25T09:25:39.962Z,58.90
2023-04-25T09:28:09.940Z,58.67
2023-04-25T09:30:38.999Z,57.85
2023-04-25T09:33:13.595Z,56.64
2023-04-25T09:35:47.154Z,55.80
2023-04-25T09:38:26.385Z,56.12
2023-04-25T09:41:26.688Z,54.60
2023-04-25T09:44:00.127Z,54.67
2023-04-25T09:46:37.438Z,54.61
2023-04-25T09:49:08.934Z,54.46
2023-04-25T09:51:56.658Z,53.80
2023-04-25T09:54:25.791Z,53.86
2023-04-25T09:57:11.923Z,54.31
2023-04-25T09:59:41.839Z,54.05
2023-04-25T10:02:10.372Z,53.67
2023-04-25T10:04:40.855Z,54.19
2023-04-25T10:07:18.699Z,54.23
2023-04-25T10:09:50.678Z,53.97
2023-04-25T10:12:21.038Z,54.52
2023-04-25T10:14:49.653Z,53.86
2023-04-25T10:17:17.589Z,53.26
2023-04-25T10:19:45.591Z,53.68
2023-04-25T10:22:19.481Z,53.47
2023-04-25T10:24:48.490Z,54.15
2023-04-25T10:27:16.871Z,52.64
2023-04-25T10:29:46.043Z,52.79
2023-04-25T10:32:14.066Z,53.62
2023-04-25T10:34:43.356Z,53.67
2023-04-25T10:37:12.191Z,52.85
2023-04-25T10:39:41.088Z,52.18
2023-04-25T10:42:09.731Z,52.93
2023-04-25T10:44:39.715Z,52.19
2023-04-25T10:47:10.402Z,52.03
2023-04-25T10:49:40.263Z,51.44
2023-04-25T10:52:16.546Z,51.55
2023-04-25T10:54:49.358Z,51.28
2023-04-25T10:57:34.494Z,51.30
2023-04-25T11:00:06.072Z,51.46
2023-04-25T11:02:39.880Z,50.94
2023-04-25T11:05:08.961Z,51.43
2023-04-25T11:07:43.211Z,50.27
2023-04-25T11:10:12.367Z,51.68
2023-04-25T11:12:40.357Z,51.82
2023-04-25T11:15:09.818Z,51.36
2023-04-25T11:17:40.416Z,51.19
2023-04-25T11:20:12.216Z,51.41
2023-04-25T11:22:42.721Z,51.18
2023-04-25T11:25:12.784Z,51.16
2023-04-25T11:27:52.349Z,50.78
2023-04-25T11:30:21.514Z,49.74
2023-04-25T11:32:51.050Z,49.51
2023-04-25T11:35:19.293Z,49.49
2023-04-25T11:37:47.310Z,49.04
2023-04-25T11:40:15.721Z,48.73
2023-04-25T11:42:46.421Z,48.40
2023-04-25T11:45:14.925Z,48.76
2023-04-25T11:47:42.966Z,48.93
2023-04-25T11:50:12.856Z,48.97
2023-04-25T11:52:41.608Z,48.08
2023-04-25T11:55:11.619Z,48.30
2023-04-25T11:57:41.136Z,48.80
2023-04-25T12:00:14.507Z,49.35
2023-04-25T12:02:46.242Z,49.10
2023-04-25T12:05:31.293Z,49.52
2023-04-25T12:08:12.034Z,50.48
2023-04-25T12:10:40.882Z,49.52
2023-04-25T12:13:25.604Z,49.63
2023-04-25T12:15:53.710Z,48.85
2023-04-25T12:18:23.240Z,47.87
2023-04-25T12:20:54.361Z,47.29
2023-04-25T12:23:28.223Z,46.18
2023-04-25T12:25:56.972Z,46.46
2023-04-25T12:28:28.195Z,47.22
2023-04-25T12:30:58.787Z,47.23
2023-04-25T12:33:28.143Z,47.45
2023-04-25T12:35:58.417Z,47.14
2023-04-25T12:38:28.211Z,46.88
2023-04-25T12:40:56.359Z,47.04
2023-04-25T12:43:24.424Z,46.69
2023-04-25T12:45:52.965Z,46.79
2023-04-25T12:48:21.843Z,44.44
2023-04-25T12:50:50.592Z,44.42
2023-04-25T12:53:21.437Z,44.55
2023-04-25T12:55:49.990Z,45.16
2023-04-25T12:58:19.345Z,44.90
2023-04-25T13:00:47.787Z,45.35
2023-04-25T13:03:15.932Z,45.60
2023-04-25T13:05:44.497Z,44.01
2023-04-25T13:08:12.380Z,43.75
2023-04-25T13:10:41.948Z,44.18
2023-04-25T13:13:09.962Z,45.06
2023-04-25T13:15:38.024Z,45.31
2023-04-25T13:18:06.451Z,45.05
2023-04-25T13:20:34.706Z,44.76
2023-04-25T13:23:03.027Z,44.91
2023-04-25T13:25:31.257Z,44.59
2023-04-25T13:28:00.519Z,44.65
2023-04-25T13:30:28.580Z,44.96
2023-04-25T13:32:58.061Z,44.39
2023-04-25T13:35:26.696Z,44.49
2023-04-25T13:37:54.526Z,44.87
2023-04-25T13:40:24.708Z,45.37
2023-04-25T13:42:53.425Z,45.76
2023-04-25T13:45:22.864Z,46.80
2023-04-25T13:47:50.999Z,47.72
2023-04-25T13:50:19.144Z,47.53
2023-04-25T13:52:47.082Z,48.38
2023-04-25T13:55:14.886Z,48.58
2023-04-25T13:57:42.758Z,49.69
2023-04-25T14:00:12.004Z,48.22
2023-04-25T14:02:41.459Z,49.20
2023-04-25T14:05:10.348Z,49.42
2023-04-25T14:07:38.623Z,48.61
2023-04-25T14:10:07.908Z,48.49
2023-04-25T14:12:36.078Z,47.61
2023-04-25T14:15:04.681Z,47.46
2023-04-25T14:17:33.373Z,47.40
2023-04-25T14:20:02.771Z,47.61
2023-04-25T14:22:30.886Z,47.67
2023-04-25T14:24:59.093Z,47.70
2023-04-25T14:27:29.149Z,46.59
2023-04-25T14:29:57.360Z,47.27
2023-04-25T14:32:25.275Z,48.81
2023-04-25T14:34:53.133Z,49.35
2023-04-25T14:37:22.409Z,50.07
2023-04-25T14:39:50.475Z,50.65
2023-04-25T14:42:18.381Z,50.96
2023-04-25T14:44:46.568Z,51.79
2023-04-25T14:47:14.578Z,51.94
2023-04-25T14:49:42.514Z,52.02
2023-04-25T14:52:10.405Z,51.95
2023-04-25T14:54:39.713Z,51.88
2023-04-25T14:57:08.449Z,52.38
2023-04-25T14:59:36.464Z,52.48
2023-04-25T15:02:04.526Z,51.65
2023-04-25T15:04:33.128Z,51.77
2023-04-25T15:07:01.067Z,51.49
2023-04-25T15:09:29.697Z,51.56
2023-04-25T15:11:59.476Z,51.84
2023-04-25T15:14:27.416Z,51.64
2023-04-25T15:16:55.403Z,51.58
2023-04-25T15:19:23.441Z,50.86
2023-04-25T15:21:51.442Z,50.84
2023-04-25T15:24:19.793Z,50.56
2023-04-25T15:26:47.802Z,50.81
2023-04-25T15:29:17.488Z,50.57
2023-04-25T15:31:45.385Z,50.43
2023-04-25T15:34:13.370Z,49.62
2023-04-25T15:36:41.172Z,48.06
2023-04-25T15:39:09.104Z,47.59
2023-04-25T15:41:37.970Z,47.87
2023-04-25T15:44:07.939Z,47.68
2023-04-25T15:46:37.358Z,48.26
2023-04-25T15:49:05.413Z,48.34
2023-04-25T15:51:34.003Z,47.55
2023-04-25T15:54:02.645Z,47.79
2023-04-25T15:56:30.773Z,47.15
2023-04-25T15:58:58.615Z,47.37
2023-04-25T16:01:30.654Z,47.14
2023-04-25T16:04:00.258Z,46.66
2023-04-25T16:06:28.637Z,46.69
2023-04-25T16:08:57.072Z,46.72
2023-04-25T16:11:24.976Z,46.63
2023-04-25T16:13:53.495Z,47.12
2023-04-25T16:16:21.598Z,47.10
2023-04-25T16:18:49.596Z,46.72
2023-04-25T16:21:18.873Z,47.00
2023-04-25T16:23:46.790Z,46.36
2023-04-25T16:26:14.648Z,46.13
2023-04-25T16:28:42.660Z,45.60
2023-04-25T16:31:10.619Z,45.95
2023-04-25T16:33:38.490Z,45.42
2023-04-25T16:36:07.451Z,43.82
2023-04-25T16:38:39.686Z,42.86
2023-04-25T16:41:07.960Z,42.39
2023-04-25T16:43:36.230Z,42.79
2023-04-25T16:46:04.270Z,42.30
2023-04-25T16:48:32.160Z,42.41
2023-04-25T16:51:00.174Z,42.61
2023-04-25T16:53:28.628Z,41.79
2023-04-25T16:55:58.750Z,42.91
2023-04-25T16:58:27.145Z,43.71
2023-04-25T17:00:55.679Z,43.75
2023-04-25T17:03:24.104Z,44.27
2023-04-25T17:05:54.875Z,45.06
2023-04-25T17:08:22.873Z,45.65
2023-04-25T17:10:50.826Z,46.16
2023-04-25T17:13:20.158Z,46.99
2023-04-25T17:15:48.126Z,47.69
2023-04-25T17:18:16.051Z,48.19
2023-04-25T17:20:44.214Z,49.32
2023-04-25T17:23:12.684Z,50.22
2023-04-25T17:25:41.336Z,51.38
2023-04-25T17:28:09.218Z,52.00
2023-04-25T17:30:38.506Z,52.90
2023-04-25T17:33:06.692Z,52.71
2023-04-25T17:35:34.986Z,52.58
2023-04-25T17:38:03.349Z,52.67
2023-04-25T17:40:31.530Z,52.46
2023-04-25T17:42:59.489Z,53.05
2023-04-25T17:45:28.790Z,53.24
2023-04-25T17:47:58.027Z,53.69
2023-04-25T17:50:25.969Z,54.52
2023-04-25T17:52:53.895Z,55.45
2023-04-25T17:55:21.985Z,55.49
2023-04-25T17:57:49.879Z,55.74
2023-04-25T18:00:18.629Z,56.34
2023-04-25T18:02:48.475Z,56.30
2023-04-25T18:05:17.876Z,56.50
2023-04-25T18:07:45.970Z,57.11
2023-04-25T18:10:16.027Z,57.13
2023-04-25T18:12:44.124Z,56.99
2023-04-25T18:15:12.654Z,57.31
2023-04-25T18:17:40.935Z,57.71
2023-04-25T18:20:11.982Z,57.66
2023-04-25T18:22:41.473Z,57.06
2023-04-25T18:25:11.198Z,57.43
2023-04-25T18:27:39.673Z,57.40
2023-04-25T18:30:10.650Z,57.51
2023-04-25T18:32:38.741Z,57.09
2023-04-25T18:35:09.907Z,57.68
2023-04-25T18:37:39.628Z,57.47
2023-04-25T18:40:14.116Z,57.47
2023-04-25T18:42:43.079Z,57.79
2023-04-25T18:45:12.111Z,57.40
2023-04-25T18:47:40.407Z,56.61
2023-04-25T18:50:09.549Z,56.97
2023-04-25T18:52:38.155Z,56.62
2023-04-25T18:55:07.239Z,56.12
2023-04-25T18:57:36.533Z,56.65
2023-04-25T19:00:06.838Z,56.85
2023-04-25T19:02:36.990Z,56.83
2023-04-25T19:05:05.760Z,57.11
2023-04-25T19:07:33.824Z,57.66
2023-04-25T19:10:01.773Z,57.69
2023-04-25T19:12:29.775Z,58.00
2023-04-25T19:14:59.085Z,58.00
2023-04-25T19:17:29.054Z,58.33
2023-04-25T19:19:58.281Z,58.09
2023-04-25T19:22:27.420Z,58.28
2023-04-25T19:25:03.102Z,58.67
2023-04-25T19:27:38.139Z,58.92
2023-04-25T19:30:08.997Z,59.06
2023-04-25T19:32:37.166Z,58.71
2023-04-25T19:35:05.664Z,59.45
2023-04-25T19:37:33.625Z,59.28
2023-04-25T19:40:01.579Z,59.26
2023-04-25T19:42:29.662Z,59.51
2023-04-25T19:44:57.554Z,59.29
2023-04-25T19:47:27.643Z,59.10
2023-04-25T19:49:55.550Z,59.51
2023-04-25T19:52:23.488Z,59.45
2023-04-25T19:54:52.166Z,59.60
2023-04-25T19:57:19.987Z,59.63
2023-04-25T19:59:49.684Z,59.92
2023-04-25T20:02:18.425Z,60.02
2023-04-25T20:04:47.791Z,60.03
2023-04-25T20:07:15.738Z,60.29
2023-04-25T20:09:43.641Z,59.94
2023-04-25T20:12:12.188Z,60.56
2023-04-25T20:14:40.308Z,60.29
2023-04-25T20:17:10.933Z,60.79
2023-04-25T20:19:38.840Z,61.29
2023-04-25T20:22:08.095Z,61.23
2023-04-25T20:24:35.992Z,61.59
2023-04-25T20:27:03.861Z,60.74
2023-04-25T20:29:31.783Z,60.40
2023-04-25T20:32:03.233Z,60.40
2023-04-25T20:34:31.731Z,60.35
2023-04-25T20:36:59.715Z,59.41
2023-04-25T20:39:28.984Z,60.26
2023-04-25T20:41:57.707Z,60.15
2023-04-25T20:44:25.887Z,59.53
2023-04-25T20:46:53.831Z,59.41
2023-04-25T20:49:21.810Z,58.85
2023-04-25T20:51:49.900Z,58.53
2023-04-25T20:54:17.956Z,57.77
2023-04-25T20:56:47.203Z,56.47
2023-04-25T20:59:15.333Z,55.19
2023-04-25T21:01:43.340Z,56.33
2023-04-25T21:04:11.349Z,55.64
2023-04-25T21:06:39.683Z,55.73
2023-04-25T21:09:07.783Z,55.93
2023-04-25T21:11:35.747Z,55.89
2023-04-25T21:14:05.554Z,55.87
2023-04-25T21:16:35.401Z,55.46
2023-04-25T21:19:03.996Z,56.65
2023-04-25T21:21:32.167Z,55.92
2023-04-25T21:24:00.071Z,55.71
2023-04-25T21:26:27.992Z,55.32
2023-04-25T21:28:55.993Z,54.44
2023-04-25T21:31:26.282Z,55.41
2023-04-25T21:33:54.503Z,54.61
2023-04-25T21:36:23.058Z,54.60
2023-04-25T21:38:51.253Z,54.43
2023-04-25T21:41:19.336Z,54.32
2023-04-25T21:43:47.216Z,53.95
2023-04-25T21:46:23.491Z,54.05
2023-04-25T21:48:53.501Z,54.36
2023-04-25T21:51:22.137Z,54.19
2023-04-25T21:53:49.954Z,54.66
2023-04-25T21:56:18.007Z,56.12
2023-04-25T21:58:46.570Z,55.78
2023-04-25T22:01:15.874Z,56.42
2023-04-25T22:03:43.969Z,57.28
2023-04-25T22:06:13.293Z,56.89
2023-04-25T22:08:41.155Z,57.25
2023-04-25T22:11:09.008Z,56.55
2023-04-25T22:13:36.887Z,57.91
2023-04-25T22:16:04.995Z,56.74
2023-04-25T22:18:33.277Z,57.69
2023-04-25T22:21:02.352Z,57.88
2023-04-25T22:23:31.553Z,58.51
2023-04-25T22:25:59.606Z,58.50
2023-04-25T22:28:28.011Z,59.12
2023-04-25T22:30:56.174Z,59.13
2023-04-25T22:33:24.067Z,59.70
2023-04-25T22:35:51.904Z,59.32
2023-04-25T22:38:19.977Z,60.01
2023-04-25T22:40:49.209Z,58.84
2023-04-25T22:43:17.070Z,59.01
2023-04-25T22:45:44.933Z,58.63
2023-04-25T22:48:13.037Z,58.25
2023-04-25T22:50:41.172Z,58.44
2023-04-25T22:53:10.138Z,58.72
2023-04-25T22:55:38.013Z,58.52
2023-04-25T22:58:08.590Z,57.99
2023-04-25T23:00:37.740Z,58.88
2023-04-25T23:03:06.284Z,58.67
2023-04-25T23:05:34.502Z,59.02
2023-04-25T23:08:02.385Z,58.46
2023-04-25T23:10:30.448Z,59.09
2023-04-25T23:13:00.753Z,58.75
2023-04-25T23:15:31.479Z,59.67
2023-04-25T23:17:59.748Z,59.30
2023-04-25T23:20:27.943Z,59.54
2023-04-25T23:22:56.057Z,59.41
2023-04-25T23:25:24.419Z,59.46
2023-04-25T23:27:52.597Z,58.90
2023-04-25T23:30:20.934Z,59.44
2023-04-25T23:32:50.434Z,59.66
2023-04-25T23:35:18.415Z,59.14
2023-04-25T23:37:49.002Z,59.12
2023-04-25T23:40:16.982Z,59.22
2023-04-25T23:42:44.854Z,58.08
2023-04-25T23:45:14.289Z,58.58
2023-04-25T23:47:43.087Z,58.52
2023-04-25T23:50:12.832Z,58.47
2023-04-25T23:52:40.880Z,58.25
2023-04-25T23:55:09.709Z,57.61
2023-04-25T23:57:37.619Z,57.86
